createdAt,value
2022-12-15T00:02:19.255Z,28.00
2022-12-15T00:06:19.613Z,25.67
2022-12-15T00:10:19.762Z,24.97
2022-12-15T00:14:21.389Z,23.50
2022-12-15T00:18:23.767Z,23.97
2022-12-15T00:22:26.575Z,28.27
2022-12-15T00:26:26.928Z,31.77
2022-12-15T00:30:29.837Z,31.77
2022-12-15T00:34:30.759Z,31.33
2022-12-15T00:38:35.018Z,35.97
2022-12-15T00:42:17.640Z,34.77
2022-12-15T00:46:19.661Z,33.77
2022-12-15T00:50:19.835Z,35.67
2022-12-15T00:54:20.217Z,29.93
2022-12-15T00:58:20.519Z,33.20
2022-12-15T01:02:22.297Z,32.90
2022-12-15T01:06:24.405Z,33.37
2022-12-15T01:10:25.328Z,30.87
2022-12-15T01:14:25.400Z,33.63
2022-12-15T01:18:27.152Z,36.00
2022-12-15T01:22:09.822Z,35.80
2022-12-15T01:25:53.113Z,36.57
2022-12-15T01:29:35.717Z,33.80
2022-12-15T01:33:20.206Z,32.00
2022-12-15T01:37:02.923Z,31.07
2022-12-15T01:40:52.547Z,30.37
2022-12-15T01:44:35.172Z,34.60
2022-12-15T01:48:25.325Z,45.73
2022-12-15T01:52:09.024Z,37.87
2022-12-15T01:55:51.960Z,33.63
2022-12-15T01:59:40.697Z,34.77
2022-12-15T02:03:24.961Z,36.80
2022-12-15T02:07:07.635Z,33.73
2022-12-15T02:11:03.682Z,35.87
2022-12-15T02:14:59.570Z,32.33
2022-12-15T02:18:47.724Z,30.33
2022-12-15T02:22:43.246Z,33.37
2022-12-15T02:26:57.688Z,31.53
2022-12-15T02:31:12.500Z,32.97
2022-12-15T02:34:59.296Z,31.37
2022-12-15T02:38:42.557Z,34.13
2022-12-15T02:42:26.165Z,31.67
2022-12-15T02:46:18.536Z,35.00
2022-12-15T02:50:21.308Z,30.00
2022-12-15T02:54:32.978Z,30.37
2022-12-15T02:58:22.197Z,27.83
2022-12-15T03:02:07.957Z,32.43
2022-12-15T03:05:53.216Z,30.67
2022-12-15T03:09:36.149Z,31.93
2022-12-15T03:13:21.461Z,32.53
2022-12-15T03:17:07.106Z,32.87
2022-12-15T03:20:51.143Z,33.83
2022-12-15T03:24:33.788Z,32.30
2022-12-15T03:28:16.472Z,34.27
2022-12-15T03:31:59.181Z,33.17
2022-12-15T03:35:41.869Z,38.03
2022-12-15T03:39:26.010Z,40.20
2022-12-15T03:43:08.665Z,37.63
2022-12-15T03:46:57.230Z,35.50
2022-12-15T03:50:44.515Z,37.33
2022-12-15T03:54:29.147Z,36.80
2022-12-15T03:58:11.811Z,39.07
2022-12-15T04:01:54.748Z,41.10
2022-12-15T04:05:38.587Z,41.57
2022-12-15T04:09:21.207Z,43.43
2022-12-15T04:13:07.382Z,42.47
2022-12-15T04:16:50.080Z,40.57
2022-12-15T04:20:33.234Z,38.10
2022-12-15T04:24:33.302Z,40.90
2022-12-15T04:28:34.903Z,38.17
2022-12-15T04:32:35.167Z,37.23
2022-12-15T04:36:35.365Z,35.83
2022-12-15T04:40:38.703Z,38.37
2022-12-15T04:44:40.523Z,41.37
2022-12-15T04:48:40.884Z,45.10
2022-12-15T04:52:41.185Z,41.10
2022-12-15T04:56:41.654Z,40.43
2022-12-15T05:00:43.240Z,42.17
2022-12-15T05:04:43.668Z,42.47
2022-12-15T05:08:44.183Z,37.53
2022-12-15T05:12:44.394Z,37.73
2022-12-15T05:16:46.104Z,41.40
2022-12-15T05:20:46.215Z,40.80
2022-12-15T05:24:50.439Z,38.20
2022-12-15T05:28:50.890Z,38.97
2022-12-15T05:32:34.994Z,43.17
2022-12-15T05:36:18.080Z,40.93
2022-12-15T05:40:03.346Z,41.30
2022-12-15T05:43:47.242Z,39.07
2022-12-15T05:47:30.038Z,40.53
2022-12-15T05:51:14.564Z,41.73
2022-12-15T05:54:57.211Z,42.53
2022-12-15T05:58:45.156Z,42.23
2022-12-15T06:02:29.550Z,41.83
2022-12-15T06:06:14.847Z,40.97
2022-12-15T06:09:57.537Z,39.80
2022-12-15T06:13:42.577Z,41.17
2022-12-15T06:17:25.245Z,41.30
2022-12-15T06:21:09.981Z,40.40
2022-12-15T06:24:54.054Z,43.93
2022-12-15T06:28:38.794Z,37.47
2022-12-15T06:32:21.857Z,38.83
2022-12-15T06:36:05.449Z,43.37
2022-12-15T06:39:48.465Z,44.13
2022-12-15T06:43:33.364Z,42.97
2022-12-15T06:47:18.361Z,44.17
2022-12-15T06:51:04.003Z,43.53
2022-12-15T06:54:46.662Z,41.27
2022-12-15T06:58:29.336Z,41.10
2022-12-15T07:02:21.094Z,36.50
2022-12-15T07:06:08.013Z,38.17
2022-12-15T07:09:50.921Z,37.60
2022-12-15T07:13:34.205Z,41.60
2022-12-15T07:17:19.068Z,41.67
2022-12-15T07:21:03.451Z,39.37
2022-12-15T07:24:46.220Z,39.87
2022-12-15T07:28:29.047Z,40.60
2022-12-15T07:32:11.982Z,43.00
2022-12-15T07:35:56.394Z,42.97
2022-12-15T07:39:41.836Z,46.77
2022-12-15T07:43:25.198Z,45.40
2022-12-15T07:47:07.891Z,44.93
2022-12-15T07:50:51.599Z,44.17
2022-12-15T07:54:36.429Z,45.30
2022-12-15T07:58:19.042Z,44.40
2022-12-15T08:02:05.132Z,48.40
2022-12-15T08:05:48.003Z,43.90
2022-12-15T08:09:31.783Z,48.73
2022-12-15T08:13:38.198Z,43.50
2022-12-15T08:17:20.568Z,42.47
2022-12-15T08:21:04.326Z,46.00
2022-12-15T08:24:48.115Z,43.03
2022-12-15T08:28:32.231Z,46.40
2022-12-15T08:32:15.392Z,48.27
2022-12-15T08:36:00.105Z,46.20
2022-12-15T08:39:44.987Z,50.47
2022-12-15T08:43:30.700Z,45.43
2022-12-15T08:47:18.201Z,44.97
2022-12-15T08:51:00.956Z,46.30
2022-12-15T08:54:43.803Z,47.23
2022-12-15T08:58:26.541Z,46.37
2022-12-15T09:02:17.279Z,50.13
2022-12-15T09:06:03.833Z,49.57
2022-12-15T09:09:47.169Z,44.63
2022-12-15T09:13:30.398Z,45.83
2022-12-15T09:17:15.953Z,47.07
2022-12-15T09:21:02.151Z,48.53
2022-12-15T09:24:45.138Z,45.93
2022-12-15T09:28:27.938Z,49.93
2022-12-15T09:32:14.054Z,47.43
2022-12-15T09:35:58.537Z,51.33
2022-12-15T09:39:41.179Z,48.23
2022-12-15T09:43:34.792Z,46.13
2022-12-15T09:47:24.673Z,48.87
2022-12-15T09:51:13.440Z,48.80
2022-12-15T09:54:56.473Z,50.67
2022-12-15T09:58:43.831Z,50.00
2022-12-15T10:02:43.369Z,49.07
2022-12-15T10:10:39.867Z,46.27
2022-12-15T10:14:28.342Z,41.70
2022-12-15T10:18:20.085Z,46.83
2022-12-15T10:22:04.249Z,45.67
2022-12-15T10:25:51.563Z,47.80
2022-12-15T10:29:39.169Z,49.70
2022-12-15T10:33:24.361Z,47.87
2022-12-15T10:37:14.801Z,48.03
2022-12-15T10:41:00.701Z,48.93
2022-12-15T10:44:45.627Z,51.67
2022-12-15T10:48:33.448Z,54.07
2022-12-15T10:52:28.689Z,48.37
2022-12-15T10:56:24.847Z,58.30
2022-12-15T11:00:33.057Z,53.67
2022-12-15T11:04:27.330Z,55.63
2022-12-15T11:08:17.850Z,55.40
2022-12-15T11:12:19.065Z,49.73
2022-12-15T11:16:12.502Z,48.77
2022-12-15T11:20:02.729Z,57.47
2022-12-15T11:23:53.277Z,58.00
2022-12-15T11:27:39.228Z,56.77
2022-12-15T11:31:26.866Z,59.43
2022-12-15T11:35:13.358Z,54.87
2022-12-15T11:39:01.742Z,50.73
2022-12-15T11:42:55.087Z,58.50
2022-12-15T11:46:41.157Z,62.27
2022-12-15T11:50:31.296Z,60.77
2022-12-15T11:54:20.760Z,61.87
2022-12-15T11:58:19.336Z,55.63
2022-12-15T12:02:17.254Z,65.20
2022-12-15T12:06:10.031Z,62.23
2022-12-15T12:10:04.634Z,60.80
2022-12-15T12:13:56.790Z,63.80
2022-12-15T12:17:43.400Z,59.70
2022-12-15T12:21:28.004Z,57.67
2022-12-15T12:25:14.956Z,57.23
2022-12-15T12:29:03.326Z,61.63
2022-12-15T12:32:52.211Z,58.10
2022-12-15T12:36:35.215Z,62.60
2022-12-15T12:40:23.452Z,58.83
2022-12-15T12:44:12.389Z,57.00
2022-12-15T12:47:57.156Z,65.60
2022-12-15T12:51:41.836Z,58.20
2022-12-15T12:55:31.817Z,60.63
2022-12-15T12:59:36.427Z,62.60
2022-12-15T13:03:23.789Z,63.57
2022-12-15T13:07:12.791Z,60.63
2022-12-15T13:10:57.296Z,64.63
2022-12-15T13:14:57.851Z,65.03
2022-12-15T13:18:59.030Z,58.60
2022-12-15T13:22:41.764Z,64.47
2022-12-15T13:26:31.647Z,65.27
2022-12-15T13:30:16.876Z,59.13
2022-12-15T13:34:15.444Z,65.13
2022-12-15T13:38:02.820Z,68.93
2022-12-15T13:42:34.324Z,63.83
2022-12-15T13:46:21.608Z,60.20
2022-12-15T13:50:08.614Z,61.53
2022-12-15T13:53:54.720Z,58.63
2022-12-15T13:57:49.180Z,65.03
2022-12-15T14:01:33.716Z,61.83
2022-12-15T14:05:21.826Z,61.13
2022-12-15T14:09:06.004Z,61.53
2022-12-15T14:12:52.652Z,66.90
2022-12-15T14:16:36.247Z,61.60
2022-12-15T14:20:21.332Z,61.53
2022-12-15T14:24:37.625Z,55.30
2022-12-15T14:28:31.679Z,65.53
2022-12-15T14:32:14.941Z,63.43
2022-12-15T14:35:58.786Z,64.73
2022-12-15T14:39:47.697Z,61.27
2022-12-15T14:43:37.465Z,64.43
2022-12-15T14:47:22.194Z,58.33
2022-12-15T14:51:05.891Z,62.33
2022-12-15T14:54:53.381Z,57.93
2022-12-15T14:58:42.290Z,65.50
2022-12-15T15:02:28.554Z,56.47
2022-12-15T15:03:09.371Z,55.07
2022-12-15T15:06:18.746Z,58.03
2022-12-15T15:10:01.803Z,60.27
2022-12-15T15:13:47.088Z,59.27
2022-12-15T15:17:37.136Z,56.90
2022-12-15T15:21:22.464Z,59.03
2022-12-15T15:25:26.993Z,62.17
2022-12-15T15:29:38.326Z,60.70
2022-12-15T15:33:21.244Z,62.97
2022-12-15T15:37:05.901Z,60.33
2022-12-15T15:40:52.996Z,57.03
2022-12-15T15:44:40.188Z,67.07
2022-12-15T15:48:25.208Z,65.17
2022-12-15T15:52:07.904Z,61.53
2022-12-15T15:55:51.937Z,58.30
2022-12-15T15:59:34.607Z,60.03
2022-12-15T16:03:19.011Z,63.03
2022-12-15T16:07:01.903Z,61.17
2022-12-15T16:10:47.093Z,57.00
2022-12-15T16:14:30.275Z,62.10
2022-12-15T16:18:13.241Z,60.87
2022-12-15T16:21:57.373Z,67.23
2022-12-15T16:25:50.133Z,65.23
2022-12-15T16:29:35.803Z,75.57
2022-12-15T16:33:19.090Z,69.13
2022-12-15T16:37:03.235Z,68.60
2022-12-15T16:40:46.154Z,71.77
2022-12-15T16:44:30.212Z,65.00
2022-12-15T16:48:13.464Z,71.10
2022-12-15T16:51:56.501Z,75.00
2022-12-15T16:55:40.598Z,73.63
2022-12-15T16:59:34.888Z,72.23
2022-12-15T17:03:20.149Z,70.07
2022-12-15T17:07:02.962Z,70.40
2022-12-15T17:10:47.753Z,72.73
2022-12-15T17:14:30.428Z,75.73
2022-12-15T17:18:14.861Z,75.50
2022-12-15T17:21:58.212Z,72.80
2022-12-15T17:29:46.519Z,64.60
2022-12-15T17:33:31.268Z,67.80
2022-12-15T17:37:14.717Z,67.20
2022-12-15T17:40:57.557Z,74.70
2022-12-15T17:44:40.843Z,68.80
2022-12-15T17:48:25.185Z,63.30
2022-12-15T17:52:14.320Z,65.87
2022-12-15T17:55:57.064Z,65.73
2022-12-15T17:59:39.744Z,69.60
2022-12-15T18:03:23.228Z,79.97
2022-12-15T18:07:07.615Z,72.87
2022-12-15T18:10:51.770Z,71.70
2022-12-15T18:14:34.475Z,70.73
2022-12-15T18:18:17.923Z,78.87
2022-12-15T18:22:00.722Z,72.43
2022-12-15T18:25:45.041Z,74.33
2022-12-15T18:29:28.732Z,67.23
2022-12-15T18:33:15.714Z,74.80
2022-12-15T18:37:00.215Z,80.63
2022-12-15T18:40:44.808Z,72.67
2022-12-15T18:44:28.603Z,85.17
2022-12-15T18:48:17.660Z,70.73
2022-12-15T18:52:01.629Z,68.97
2022-12-15T18:55:48.136Z,72.30
2022-12-15T18:59:31.814Z,77.37
2022-12-15T19:03:16.306Z,73.47
2022-12-15T19:07:06.501Z,77.83
2022-12-15T19:10:56.292Z,78.20
2022-12-15T19:14:42.709Z,83.37
2022-12-15T19:18:44.550Z,82.17
2022-12-15T19:22:31.268Z,81.07
2022-12-15T19:26:15.374Z,77.10
2022-12-15T19:29:58.149Z,77.73
2022-12-15T19:33:40.937Z,79.80
2022-12-15T19:37:28.858Z,81.33
2022-12-15T19:41:16.111Z,78.23
2022-12-15T19:44:59.154Z,80.60
2022-12-15T19:48:45.367Z,75.80
2022-12-15T19:52:28.390Z,82.57
2022-12-15T19:56:16.615Z,85.57
2022-12-15T19:59:59.313Z,83.10
2022-12-15T20:03:48.953Z,75.20
2022-12-15T20:07:32.159Z,72.90
2022-12-15T20:11:20.898Z,76.20
2022-12-15T20:15:11.181Z,76.80
2022-12-15T20:18:58.174Z,73.73
2022-12-15T20:22:41.234Z,68.47
2022-12-15T20:26:26.124Z,69.80
2022-12-15T20:30:18.086Z,64.97
2022-12-15T20:34:00.865Z,66.13
2022-12-15T20:37:43.909Z,57.53
2022-12-15T20:41:29.711Z,60.17
2022-12-15T20:45:18.979Z,56.27
2022-12-15T20:49:09.633Z,59.53
2022-12-15T20:52:54.932Z,59.87
2022-12-15T20:56:40.278Z,54.33
2022-12-15T21:00:23.479Z,57.53
2022-12-15T21:04:20.665Z,54.40
2022-12-15T21:08:03.309Z,51.97
2022-12-15T21:11:48.468Z,51.67
2022-12-15T21:15:31.124Z,49.47
2022-12-15T21:19:21.778Z,51.50
2022-12-15T21:23:05.028Z,48.63
2022-12-15T21:26:49.200Z,52.63
2022-12-15T21:30:32.036Z,47.23
2022-12-15T21:34:15.518Z,46.97
2022-12-15T21:37:58.471Z,49.40
2022-12-15T21:41:43.017Z,46.13
2022-12-15T21:45:27.800Z,48.53
2022-12-15T21:49:18.224Z,38.93
2022-12-15T21:53:01.420Z,39.63
2022-12-15T21:56:44.661Z,36.33
2022-12-15T22:00:29.216Z,33.50
2022-12-15T22:04:18.582Z,32.03
2022-12-15T22:08:03.082Z,35.90
2022-12-15T22:11:48.901Z,33.73
2022-12-15T22:15:33.812Z,37.33
2022-12-15T22:19:16.619Z,35.13
2022-12-15T22:23:01.945Z,31.53
2022-12-15T22:26:46.142Z,32.93
2022-12-15T22:30:29.120Z,33.03
2022-12-15T22:34:17.494Z,26.33
2022-12-15T22:38:00.365Z,31.83
2022-12-15T22:41:48.049Z,33.37
2022-12-15T22:45:31.344Z,31.97
2022-12-15T22:49:17.976Z,27.57
2022-12-15T22:53:00.746Z,30.07
2022-12-15T22:56:43.576Z,29.20
2022-12-15T23:00:26.906Z,33.90
2022-12-15T23:04:09.676Z,27.80
2022-12-15T23:07:54.208Z,27.67
2022-12-15T23:11:41.980Z,26.47
2022-12-15T23:15:43.683Z,25.50
2022-12-15T23:19:26.537Z,27.17
2022-12-15T23:23:10.738Z,24.33
2022-12-15T23:26:53.368Z,22.80
2022-12-15T23:30:36.434Z,24.23
2022-12-15T23:34:19.256Z,23.27
2022-12-15T23:38:01.966Z,24.37
2022-12-15T23:41:46.439Z,20.47
2022-12-15T23:45:29.098Z,25.30
2022-12-15T23:49:11.966Z,22.40
2022-12-15T23:52:54.722Z,22.33
2022-12-15T23:56:40.299Z,23.00
